Time;durP1;ratioP1;P1;durP2;ratioP2;P2;SDS_P1;SDS_P2;PMS_P1;PMS_P2;Temp;Humidity;BMP_temperature;BMP_pressure;BME280_temperature;BME280_humidity;BME280_pressure;Samples;Min_cycle;Max_cycle;Signal;HPM_P1;HPM_P2
2023/12/19 00:00:38;;;;;;;24.48;13.02;;;-0.40;99.90;;;;;;5101335;28;20298;-67
2023/12/19 00:03:06;;;;;;;22.05;13.00;;;-0.40;99.90;;;;;;5100940;28;20612;-65
2023/12/19 00:05:35;;;;;;;20.70;12.13;;;-0.40;99.90;;;;;;5086649;28;20224;-66
2023/12/19 00:08:04;;;;;;;23.33;13.02;;;-0.50;99.90;;;;;;5082494;28;20196;-66
2023/12/19 00:10:32;;;;;;;20.90;11.93;;;-0.60;99.90;;;;;;5098039;28;20740;-66
2023/12/19 00:13:00;;;;;;;20.63;11.15;;;-0.50;99.90;;;;;;5101739;28;20264;-66
2023/12/19 00:15:28;;;;;;;20.05;10.73;;;-0.60;99.90;;;;;;5100081;28;20573;-66
2023/12/19 00:17:56;;;;;;;20.35;11.25;;;-0.60;99.90;;;;;;5101172;28;20224;-66
2023/12/19 00:20:25;;;;;;;19.48;10.30;;;-0.60;99.90;;;;;;5101909;28;20207;-66
2023/12/19 00:22:54;;;;;;;18.38;11.13;;;-0.50;99.90;;;;;;5102192;28;20316;-66
2023/12/19 00:25:23;;;;;;;23.23;11.80;;;-0.50;99.90;;;;;;5091497;28;21049;-67
2023/12/19 00:27:51;;;;;;;21.42;12.55;;;-0.50;99.90;;;;;;5092941;28;20204;-67
2023/12/19 00:30:19;;;;;;;25.65;12.60;;;-0.40;99.90;;;;;;5101493;28;20299;-67
2023/12/19 00:32:47;;;;;;;25.80;13.77;;;-0.40;99.90;;;;;;5104865;28;20199;-68
2023/12/19 00:35:15;;;;;;;24.58;14.77;;;-0.30;99.90;;;;;;5095892;28;20985;-68
2023/12/19 00:37:43;;;;;;;26.00;16.13;;;-0.10;99.90;;;;;;5102201;28;20253;-67
2023/12/19 00:40:13;;;;;;;28.10;15.25;;;0.00;99.90;;;;;;5099957;28;20206;-68
2023/12/19 00:42:42;;;;;;;25.13;15.38;;;-0.10;99.90;;;;;;5084867;28;20227;-68
2023/12/19 00:45:11;;;;;;;23.55;14.55;;;0.00;99.90;;;;;;5084584;28;20207;-67
2023/12/19 00:47:39;;;;;;;24.90;15.73;;;0.10;99.90;;;;;;5085029;28;20283;-68
2023/12/19 00:50:09;;;;;;;28.42;18.38;;;0.10;99.90;;;;;;5085234;28;20829;-67
2023/12/19 00:52:37;;;;;;;26.70;15.68;;;0.30;99.90;;;;;;5084927;28;20249;-67
2023/12/19 00:55:06;;;;;;;25.23;15.52;;;0.40;99.90;;;;;;5102522;28;20684;-67
2023/12/19 00:57:36;;;;;;;27.40;16.20;;;0.40;99.90;;;;;;5105969;28;20333;-68
2023/12/19 01:00:05;;;;;;;26.33;14.85;;;0.30;99.90;;;;;;5097612;28;20836;-67
2023/12/19 01:02:33;;;;;;;25.70;16.52;;;0.10;99.90;;;;;;5107752;28;20276;-67
2023/12/19 01:05:01;;;;;;;28.08;15.45;;;0.10;99.90;;;;;;5107571;28;20204;-67
2023/12/19 01:07:29;;;;;;;25.65;15.32;;;0.00;99.90;;;;;;5104956;28;20204;-67
2023/12/19 01:09:57;;;;;;;27.20;14.75;;;-0.10;99.90;;;;;;5109180;28;20302;-67
2023/12/19 01:12:31;;;;;;;22.10;13.65;;;-0.10;99.90;;;;;;5109014;28;20231;-67
2023/12/19 01:15:00;;;;;;;22.73;12.27;;;-0.30;99.90;;;;;;5107844;28;20666;-67
2023/12/19 01:17:28;;;;;;;19.85;13.25;;;-0.40;99.90;;;;;;5108934;28;20295;-68
2023/12/19 01:19:56;;;;;;;19.25;12.27;;;-0.50;99.90;;;;;;5108937;28;20557;-67
2023/12/19 01:22:26;;;;;;;27.25;15.20;;;-0.50;99.90;;;;;;5108627;28;20254;-67
2023/12/19 01:24:54;;;;;;;24.35;12.60;;;-0.50;99.90;;;;;;5107147;28;20927;-67
2023/12/19 01:27:22;;;;;;;18.75;13.07;;;-0.40;99.90;;;;;;5108202;28;20226;-68
2023/12/19 01:29:50;;;;;;;24.20;13.57;;;-0.40;99.90;;;;;;5105045;28;20203;-68
2023/12/19 01:32:19;;;;;;;22.25;13.20;;;-0.50;99.90;;;;;;5108602;28;20701;-67
2023/12/19 01:34:47;;;;;;;19.70;12.15;;;-0.50;99.90;;;;;;5107219;28;20294;-67
2023/12/19 01:37:15;;;;;;;18.50;11.10;;;-0.50;99.90;;;;;;5108657;28;20226;-67
2023/12/19 01:39:43;;;;;;;21.00;12.45;;;-0.60;99.90;;;;;;5108233;28;20206;-68
2023/12/19 01:42:12;;;;;;;19.20;12.40;;;-0.60;99.90;;;;;;5108472;28;20743;-67
2023/12/19 01:44:40;;;;;;;22.00;13.13;;;-0.70;99.90;;;;;;5106890;28;20198;-68
2023/12/19 01:47:08;;;;;;;20.73;12.68;;;-0.70;99.90;;;;;;5108347;28;20922;-68
2023/12/19 01:49:38;;;;;;;23.92;12.90;;;-0.80;99.90;;;;;;5108150;28;20207;-68
2023/12/19 01:52:07;;;;;;;19.60;13.00;;;-0.70;99.90;;;;;;5108404;28;20287;-68
2023/12/19 01:54:37;;;;;;;20.95;11.82;;;-0.70;99.90;;;;;;5106794;28;20202;-67
2023/12/19 01:57:05;;;;;;;18.95;10.68;;;-0.80;99.90;;;;;;5100198;28;20234;-67
2023/12/19 01:59:34;;;;;;;19.33;11.43;;;-0.90;99.90;;;;;;5107768;28;20683;-68
2023/12/19 02:02:02;;;;;;;16.95;10.13;;;-0.90;99.90;;;;;;5114212;28;20211;-67
2023/12/19 02:04:30;;;;;;;22.10;11.93;;;-0.90;99.90;;;;;;5107180;28;20216;-67
2023/12/19 02:06:59;;;;;;;19.98;12.18;;;-0.90;99.90;;;;;;5108298;28;20220;-68
2023/12/19 02:09:29;;;;;;;19.80;11.82;;;-0.90;99.90;;;;;;5107953;28;20691;-67
2023/12/19 02:11:57;;;;;;;16.33;10.07;;;-0.80;99.90;;;;;;5108141;28;20200;-67
2023/12/19 02:14:25;;;;;;;19.35;11.55;;;-0.80;99.90;;;;;;5106409;28;20199;-66
2023/12/19 02:16:53;;;;;;;19.98;10.68;;;-0.90;99.90;;;;;;5106579;28;20788;-68
2023/12/19 02:19:21;;;;;;;18.23;10.68;;;-0.90;99.90;;;;;;5107654;28;20214;-67
2023/12/19 02:21:49;;;;;;;18.88;10.90;;;-0.90;99.90;;;;;;5107786;27;20202;-68
2023/12/19 02:24:19;;;;;;;19.70;11.30;;;-0.90;99.90;;;;;;5106866;28;20219;-67
2023/12/19 02:26:47;;;;;;;17.25;10.68;;;-0.90;99.90;;;;;;5106985;28;20238;-67
2023/12/19 02:29:15;;;;;;;18.15;11.55;;;-0.90;99.90;;;;;;5106569;28;20282;-67
2023/12/19 02:31:44;;;;;;;19.15;10.90;;;-0.90;99.90;;;;;;5107265;28;20207;-67
2023/12/19 02:34:12;;;;;;;17.52;10.00;;;-0.90;99.90;;;;;;5106495;28;20208;-68
2023/12/19 02:36:40;;;;;;;22.08;12.05;;;-0.90;99.90;;;;;;5106460;28;20219;-68
2023/12/19 02:39:10;;;;;;;18.95;11.23;;;-0.80;99.90;;;;;;5107538;28;20203;-68
2023/12/19 02:41:39;;;;;;;23.30;12.27;;;-0.80;99.90;;;;;;5101917;28;20233;-67
2023/12/19 02:44:07;;;;;;;26.65;13.02;;;-0.80;99.90;;;;;;5102395;28;20248;-67
2023/12/19 02:46:35;;;;;;;20.75;11.90;;;-0.80;99.90;;;;;;5086192;28;20711;-68
2023/12/19 02:49:04;;;;;;;20.60;11.32;;;-0.90;99.90;;;;;;5086689;28;20211;-68
2023/12/19 02:51:32;;;;;;;19.98;11.95;;;-0.80;99.90;;;;;;5087124;28;20208;-67
2023/12/19 02:54:00;;;;;;;21.52;12.20;;;-0.90;99.90;;;;;;5086244;28;21009;-66
2023/12/19 02:56:32;;;;;;;20.05;10.85;;;-1.00;99.90;;;;;;5086481;28;20727;-67
2023/12/19 02:59:01;;;;;;;19.00;10.93;;;-1.20;99.90;;;;;;5091759;28;20569;-67
2023/12/19 03:01:29;;;;;;;20.05;11.02;;;-1.20;99.90;;;;;;5107148;28;20235;-67
2023/12/19 03:04:00;;;;;;;18.60;11.73;;;-1.30;99.90;;;;;;5107438;28;20227;-66
2023/12/19 03:06:29;;;;;;;25.73;11.75;;;-1.30;99.90;;;;;;5107529;28;20315;-67
2023/12/19 03:08:58;;;;;;;19.02;10.82;;;-1.40;99.90;;;;;;5107949;28;20280;-67
2023/12/19 03:11:26;;;;;;;19.88;11.57;;;-1.40;99.90;;;;;;5107620;28;20207;-67
2023/12/19 03:13:54;;;;;;;19.88;10.98;;;-1.40;99.90;;;;;;5107307;28;20209;-67
2023/12/19 03:16:24;;;;;;;18.10;10.18;;;-1.50;99.90;;;;;;5107206;28;20785;-67
2023/12/19 03:18:51;;;;;;;19.42;11.30;;;-1.30;99.90;;;;;;5107329;28;20676;-67
2023/12/19 03:21:20;;;;;;;23.60;11.05;;;-1.30;99.90;;;;;;5107434;28;20643;-68
2023/12/19 03:23:48;;;;;;;16.15;10.02;;;-1.30;99.90;;;;;;5106365;28;20230;-67
2023/12/19 03:26:16;;;;;;;20.25;12.00;;;-1.40;99.90;;;;;;5093585;28;20977;-67
2023/12/19 03:28:43;;;;;;;20.60;12.82;;;-1.40;99.90;;;;;;5087198;28;20766;-66
2023/12/19 03:31:12;;;;;;;27.88;14.18;;;-1.40;99.90;;;;;;5087129;28;20214;-66
2023/12/19 03:33:42;;;;;;;25.73;13.65;;;-1.40;99.90;;;;;;5087114;28;20242;-68
2023/12/19 03:36:10;;;;;;;24.30;12.40;;;-1.50;99.90;;;;;;5086778;28;20249;-68
2023/12/19 03:38:38;;;;;;;19.58;12.00;;;-1.50;99.90;;;;;;5086811;28;20222;-68
2023/12/19 03:41:06;;;;;;;24.95;13.02;;;-1.50;99.90;;;;;;5086038;28;20238;-67
2023/12/19 03:43:35;;;;;;;21.42;12.35;;;-1.50;99.90;;;;;;5086019;28;20315;-68
2023/12/19 03:46:07;;;;;;;21.35;13.18;;;-1.30;99.90;;;;;;5085533;28;20232;-66
2023/12/19 03:48:35;;;;;;;19.52;11.35;;;-1.40;99.90;;;;;;5085983;28;20208;-67
2023/12/19 03:51:07;;;;;;;23.20;12.90;;;-1.30;99.90;;;;;;5085828;28;20215;-67
2023/12/19 03:53:35;;;;;;;21.98;13.48;;;-1.30;99.90;;;;;;5085398;28;20208;-67
2023/12/19 03:56:03;;;;;;;22.58;12.85;;;-1.40;99.90;;;;;;5085298;28;20231;-68
2023/12/19 03:58:31;;;;;;;19.50;12.48;;;-1.60;99.90;;;;;;5085668;28;20219;-67
2023/12/19 04:01:01;;;;;;;26.10;12.68;;;-1.50;99.90;;;;;;5085735;28;20218;-67
2023/12/19 04:03:29;;;;;;;17.90;11.40;;;-1.50;99.90;;;;;;5085434;28;20315;-68
2023/12/19 04:05:57;;;;;;;21.90;13.43;;;-1.50;99.90;;;;;;5085551;28;20657;-68
2023/12/19 04:08:26;;;;;;;24.08;12.73;;;-1.50;99.90;;;;;;5086376;28;20211;-67
2023/12/19 04:10:54;;;;;;;22.77;12.07;;;-1.50;99.90;;;;;;5087004;28;20647;-67
2023/12/19 04:13:22;;;;;;;25.38;13.68;;;-1.50;99.90;;;;;;5086608;28;20211;-67
2023/12/19 04:15:50;;;;;;;20.38;11.88;;;-1.40;99.90;;;;;;5086585;28;20907;-67
2023/12/19 04:18:19;;;;;;;19.85;11.27;;;-1.50;99.90;;;;;;5087010;28;20220;-67
2023/12/19 04:20:54;;;;;;;18.75;11.60;;;-1.50;99.90;;;;;;5086414;28;20207;-67
2023/12/19 04:23:22;;;;;;;19.70;11.77;;;-1.50;99.90;;;;;;5087010;28;20231;-67
2023/12/19 04:25:51;;;;;;;21.08;11.50;;;-1.60;99.90;;;;;;5086788;28;20235;-68
2023/12/19 04:28:19;;;;;;;22.20;13.63;;;-1.70;99.90;;;;;;5087364;28;20374;-67
2023/12/19 04:30:47;;;;;;;21.48;12.20;;;-1.60;99.90;;;;;;5087144;28;20221;-68
2023/12/19 04:33:15;;;;;;;20.25;11.02;;;-1.70;99.90;;;;;;5086435;28;20199;-67
2023/12/19 04:35:43;;;;;;;22.80;12.05;;;-1.70;99.90;;;;;;5087496;28;20396;-68
2023/12/19 04:38:11;;;;;;;20.80;11.77;;;-1.70;99.90;;;;;;5090926;28;20200;-68
2023/12/19 04:40:40;;;;;;;22.27;12.50;;;-1.80;99.90;;;;;;5090670;28;20191;-67
2023/12/19 04:43:09;;;;;;;23.35;13.68;;;-1.70;99.90;;;;;;5090324;28;20208;-67
2023/12/19 04:45:37;;;;;;;21.17;11.70;;;-1.70;99.90;;;;;;5090557;28;20243;-67
2023/12/19 04:48:06;;;;;;;23.13;11.75;;;-1.70;99.90;;;;;;5090487;28;20208;-67
2023/12/19 04:50:35;;;;;;;17.70;10.20;;;-1.70;99.90;;;;;;5090325;28;20944;-68
2023/12/19 04:53:03;;;;;;;20.45;11.48;;;-1.50;99.90;;;;;;5090257;28;20195;-67
2023/12/19 04:55:31;;;;;;;20.13;10.88;;;-1.60;99.90;;;;;;5090203;28;20224;-66
2023/12/19 04:57:59;;;;;;;18.65;11.48;;;-1.70;99.90;;;;;;5090134;28;20203;-67
2023/12/19 05:00:28;;;;;;;18.60;10.05;;;-1.70;99.90;;;;;;5090081;28;20208;-67
2023/12/19 05:02:56;;;;;;;16.33;9.98;;;-1.70;99.90;;;;;;5089790;28;20214;-67
2023/12/19 05:05:26;;;;;;;17.77;10.20;;;-1.60;99.90;;;;;;5089549;28;20231;-68
2023/12/19 05:07:54;;;;;;;18.00;10.27;;;-1.70;99.90;;;;;;5090068;28;20257;-67
2023/12/19 05:10:22;;;;;;;19.08;9.20;;;-1.70;99.90;;;;;;5090128;28;20298;-67
2023/12/19 05:12:50;;;;;;;19.13;8.55;;;-1.70;99.90;;;;;;5095045;28;20462;-67
2023/12/19 05:15:18;;;;;;;18.45;10.55;;;-1.80;99.90;;;;;;5110052;28;20250;-67
2023/12/19 05:17:47;;;;;;;15.20;9.23;;;-1.70;99.90;;;;;;5110095;28;20219;-67
2023/12/19 05:20:16;;;;;;;15.75;9.40;;;-1.60;99.90;;;;;;5110298;28;20230;-66
2023/12/19 05:22:44;;;;;;;18.58;10.07;;;-1.70;99.90;;;;;;5109941;28;20203;-67
2023/12/19 05:25:12;;;;;;;19.02;9.68;;;-1.80;99.90;;;;;;5109555;28;20339;-67
2023/12/19 05:27:43;;;;;;;16.70;11.55;;;-1.80;99.90;;;;;;5109959;27;20824;-67
2023/12/19 05:30:13;;;;;;;14.93;8.65;;;-1.80;99.90;;;;;;5109967;27;20207;-68
2023/12/19 05:32:41;;;;;;;16.15;8.35;;;-1.90;99.90;;;;;;5107434;28;20226;-67
2023/12/19 05:35:11;;;;;;;16.38;9.05;;;-1.90;99.90;;;;;;5102117;28;20267;-67
2023/12/19 05:37:39;;;;;;;17.77;9.55;;;-1.90;99.90;;;;;;5109633;28;20200;-67
2023/12/19 05:40:08;;;;;;;16.25;9.30;;;-1.90;99.90;;;;;;5092679;28;20274;-69
2023/12/19 05:42:37;;;;;;;19.25;10.70;;;-2.00;99.90;;;;;;5109733;27;20359;-67
2023/12/19 05:45:07;;;;;;;16.60;9.27;;;-2.00;99.90;;;;;;5109284;28;20307;-66
2023/12/19 05:47:36;;;;;;;22.58;14.75;;;-1.90;99.90;;;;;;5109031;28;20577;-67
2023/12/19 05:50:04;;;;;;;18.88;11.48;;;-2.00;99.90;;;;;;5109541;28;20207;-67
2023/12/19 05:52:34;;;;;;;16.63;9.40;;;-2.00;99.90;;;;;;5109874;28;20571;-67
2023/12/19 05:55:02;;;;;;;18.58;9.90;;;-2.00;99.90;;;;;;5108905;27;20726;-68
2023/12/19 05:57:33;;;;;;;16.73;10.02;;;-2.00;99.90;;;;;;5106941;28;20618;-67
2023/12/19 06:00:01;;;;;;;18.70;12.07;;;-1.90;99.90;;;;;;5107031;28;20286;-67
2023/12/19 06:02:29;;;;;;;20.45;10.70;;;-2.10;99.90;;;;;;5108790;27;20207;-67
2023/12/19 06:04:59;;;;;;;19.20;10.65;;;-2.00;99.90;;;;;;5108008;28;20866;-67
2023/12/19 06:07:27;;;;;;;17.95;9.88;;;-1.90;99.90;;;;;;5109716;28;20621;-67
2023/12/19 06:09:57;;;;;;;19.17;10.32;;;-1.90;99.90;;;;;;5104393;28;20229;-68
2023/12/19 06:12:25;;;;;;;16.40;10.00;;;-2.00;99.90;;;;;;5109545;28;20278;-67
2023/12/19 06:14:53;;;;;;;19.35;10.43;;;-2.00;99.90;;;;;;5108602;28;20671;-67
2023/12/19 06:17:21;;;;;;;18.95;10.82;;;-2.00;99.90;;;;;;5109008;28;20207;-68
2023/12/19 06:19:49;;;;;;;21.83;10.85;;;-2.10;99.90;;;;;;5107631;28;20203;-67
2023/12/19 06:22:17;;;;;;;24.15;11.60;;;-2.10;99.90;;;;;;5105013;28;20207;-67
2023/12/19 06:24:45;;;;;;;21.50;11.35;;;-2.20;99.90;;;;;;5107967;28;20677;-67
2023/12/19 06:27:16;;;;;;;18.88;10.80;;;-2.20;99.90;;;;;;5100876;28;20227;-69
2023/12/19 06:29:44;;;;;;;21.52;11.85;;;-2.20;99.90;;;;;;5108099;28;20297;-66
2023/12/19 06:32:12;;;;;;;16.70;9.82;;;-2.20;99.90;;;;;;5108005;28;20207;-66
2023/12/19 06:34:40;;;;;;;20.52;10.02;;;-2.30;99.90;;;;;;5107716;28;20238;-66
2023/12/19 06:37:09;;;;;;;17.83;10.25;;;-2.30;99.90;;;;;;5108398;28;20245;-65
2023/12/19 06:39:37;;;;;;;22.65;11.18;;;-2.20;99.90;;;;;;5108396;28;20211;-66
2023/12/19 06:42:05;;;;;;;19.58;9.95;;;-2.30;99.90;;;;;;5108434;28;20207;-66
2023/12/19 06:44:35;;;;;;;16.55;10.35;;;-2.40;99.90;;;;;;5107877;28;20214;-66
2023/12/19 06:47:02;;;;;;;17.65;10.60;;;-2.40;99.90;;;;;;5108548;28;20223;-66
2023/12/19 06:49:30;;;;;;;18.00;9.48;;;-2.50;99.90;;;;;;5108798;28;20657;-66
2023/12/19 06:51:59;;;;;;;20.58;11.55;;;-2.30;99.90;;;;;;5108441;27;20229;-66
2023/12/19 06:54:27;;;;;;;21.17;11.20;;;-2.20;99.90;;;;;;5108160;28;20586;-66
2023/12/19 06:56:55;;;;;;;20.13;10.88;;;-2.30;99.90;;;;;;5107976;28;20795;-66
2023/12/19 06:59:24;;;;;;;20.60;11.45;;;-2.30;99.90;;;;;;5107436;28;20203;-67
2023/12/19 07:01:53;;;;;;;22.30;10.20;;;-2.40;99.90;;;;;;5107943;28;20221;-67
2023/12/19 07:04:21;;;;;;;18.92;10.80;;;-2.40;99.90;;;;;;5108027;28;20256;-67
2023/12/19 07:06:49;;;;;;;17.58;9.32;;;-2.50;99.90;;;;;;5107669;28;20925;-67
2023/12/19 07:09:17;;;;;;;19.02;10.30;;;-2.40;99.90;;;;;;5108081;28;20209;-64
2023/12/19 07:11:45;;;;;;;18.92;10.95;;;-2.20;99.90;;;;;;5108090;28;20214;-66
2023/12/19 07:14:13;;;;;;;18.45;11.60;;;-1.90;99.90;;;;;;5108120;28;20207;-66
2023/12/19 07:16:41;;;;;;;20.17;11.15;;;-1.80;99.90;;;;;;5107855;28;20225;-66
2023/12/19 07:19:11;;;;;;;19.50;11.43;;;-1.80;99.90;;;;;;5108039;28;20599;-66
2023/12/19 07:21:39;;;;;;;25.10;10.50;;;-1.80;99.90;;;;;;5107080;28;20301;-64
2023/12/19 07:24:07;;;;;;;23.58;12.43;;;-1.70;99.90;;;;;;5099872;28;20207;-65
2023/12/19 07:26:36;;;;;;;21.38;12.00;;;-1.80;99.90;;;;;;5097063;28;20313;-66
2023/12/19 07:29:08;;;;;;;18.00;11.05;;;-1.80;99.90;;;;;;5101946;28;20651;-66
2023/12/19 07:31:36;;;;;;;23.85;11.88;;;-1.80;99.90;;;;;;5102285;28;20199;-66
2023/12/19 07:34:05;;;;;;;21.00;11.77;;;-1.80;99.90;;;;;;5104487;28;20203;-67
2023/12/19 07:36:35;;;;;;;21.20;11.30;;;-1.90;99.90;;;;;;5096554;28;20220;-66
2023/12/19 07:39:04;;;;;;;19.48;11.27;;;-1.90;99.90;;;;;;5097340;28;20199;-66
2023/12/19 07:41:33;;;;;;;24.65;12.82;;;-1.90;99.90;;;;;;5100785;28;20240;-67
2023/12/19 07:44:02;;;;;;;21.65;11.98;;;-1.80;99.90;;;;;;5095210;28;20195;-68
2023/12/19 07:46:30;;;;;;;20.10;10.85;;;-1.80;99.90;;;;;;5094326;28;20276;-65
2023/12/19 07:48:58;;;;;;;21.55;11.70;;;-1.80;99.90;;;;;;5105562;28;20196;-65
2023/12/19 07:51:26;;;;;;;23.20;14.20;;;-1.70;99.90;;;;;;5107084;28;20210;-66
2023/12/19 07:53:57;;;;;;;19.15;10.85;;;-1.80;99.90;;;;;;5095842;28;20224;-66
2023/12/19 07:56:25;;;;;;;19.50;11.50;;;-1.70;99.90;;;;;;5097532;28;20932;-65
2023/12/19 07:58:53;;;;;;;19.15;12.20;;;-1.60;99.90;;;;;;5098975;28;20252;-66
2023/12/19 08:01:21;;;;;;;20.05;11.55;;;-1.50;99.90;;;;;;5092925;28;20293;-66
2023/12/19 08:03:50;;;;;;;16.75;9.07;;;-1.40;99.90;;;;;;5106861;28;20660;-68
2023/12/19 08:06:18;;;;;;;20.13;10.68;;;-1.50;99.90;;;;;;5104591;28;20226;-67
2023/12/19 08:08:49;;;;;;;20.33;12.25;;;-1.50;99.90;;;;;;5102211;28;20767;-66
2023/12/19 08:11:19;;;;;;;16.23;10.10;;;-1.50;99.90;;;;;;5103221;28;20219;-65
2023/12/19 08:13:48;;;;;;;21.05;10.68;;;-1.40;99.90;;;;;;5087217;28;20223;-66
2023/12/19 08:16:16;;;;;;;16.83;10.68;;;-1.20;99.90;;;;;;5086032;28;20645;-66
2023/12/19 08:18:44;;;;;;;18.48;10.15;;;-1.30;99.90;;;;;;5087117;28;20220;-66
2023/12/19 08:21:13;;;;;;;19.80;10.60;;;-1.20;99.90;;;;;;5087150;28;20205;-67
2023/12/19 08:23:42;;;;;;;19.02;11.43;;;-1.10;99.90;;;;;;5086788;28;20212;-66
2023/12/19 08:26:10;;;;;;;16.73;10.88;;;-1.10;99.90;;;;;;5086466;28;20234;-67
2023/12/19 08:28:40;;;;;;;23.65;11.45;;;-1.00;99.90;;;;;;5086665;28;20771;-67
2023/12/19 08:31:08;;;;;;;17.63;10.77;;;-1.10;99.90;;;;;;5087115;28;20265;-65
2023/12/19 08:33:36;;;;;;;22.48;10.73;;;-1.10;99.90;;;;;;5086852;28;20742;-65
2023/12/19 08:36:06;;;;;;;21.40;12.45;;;-1.00;99.90;;;;;;5086722;28;20234;-66
2023/12/19 08:38:54;;;;;;;18.08;10.77;;;-0.90;99.90;;;;;;5086665;28;20204;-66
2023/12/19 08:41:22;;;;;;;20.48;12.20;;;-0.70;99.90;;;;;;5086870;28;20238;-66
2023/12/19 08:43:51;;;;;;;21.98;13.02;;;-0.50;99.90;;;;;;5086824;28;20213;-66
2023/12/19 08:46:20;;;;;;;21.52;11.20;;;-0.60;99.90;;;;;;5086400;28;20235;-67
2023/12/19 08:48:49;;;;;;;22.15;12.40;;;-0.40;99.90;;;;;;5086670;28;20224;-66
2023/12/19 08:51:18;;;;;;;20.80;11.10;;;-0.50;99.90;;;;;;5086802;28;20203;-67
2023/12/19 08:53:46;;;;;;;20.67;12.52;;;-0.40;99.90;;;;;;5086464;28;20210;-67
2023/12/19 08:56:14;;;;;;;21.05;11.27;;;-0.40;99.90;;;;;;5099810;28;20220;-67
2023/12/19 08:58:44;;;;;;;23.98;12.25;;;-0.30;99.90;;;;;;5106755;28;20216;-68
2023/12/19 09:01:15;;;;;;;18.50;11.25;;;-0.20;99.90;;;;;;5106745;28;20224;-67
2023/12/19 09:03:43;;;;;;;20.30;11.60;;;0.00;99.90;;;;;;5106733;28;20259;-67
2023/12/19 09:06:11;;;;;;;20.70;13.02;;;0.10;99.90;;;;;;5106342;28;20391;-68
2023/12/19 09:08:39;;;;;;;19.20;12.00;;;0.30;99.90;;;;;;5107138;28;20204;-67
2023/12/19 09:11:08;;;;;;;20.98;11.95;;;0.30;99.90;;;;;;5106366;28;20209;-66
2023/12/19 09:13:38;;;;;;;21.63;12.88;;;0.50;99.90;;;;;;5106048;28;20217;-66
2023/12/19 09:16:07;;;;;;;21.45;12.85;;;0.60;99.90;;;;;;5105901;28;20232;-67
2023/12/19 09:18:36;;;;;;;25.20;12.70;;;0.70;99.90;;;;;;5106366;28;20201;-68
2023/12/19 09:21:05;;;;;;;22.35;12.10;;;0.80;99.90;;;;;;5105818;28;20205;-67
2023/12/19 09:23:33;;;;;;;24.25;12.10;;;0.90;99.90;;;;;;5108438;28;20244;-67
2023/12/19 09:26:01;;;;;;;26.13;13.88;;;1.00;99.90;;;;;;5109505;28;20600;-67
2023/12/19 09:28:29;;;;;;;22.65;12.02;;;1.20;99.90;;;;;;5109784;28;20251;-66
2023/12/19 09:30:58;;;;;;;25.10;12.52;;;1.40;99.90;;;;;;5109946;28;20287;-67
2023/12/19 09:33:26;;;;;;;20.02;11.85;;;1.50;99.90;;;;;;5109339;28;20221;-67
2023/12/19 09:35:55;;;;;;;22.23;11.43;;;1.60;99.90;;;;;;5109136;28;20223;-67
2023/12/19 09:38:23;;;;;;;21.93;11.10;;;1.60;99.90;;;;;;5109450;28;20480;-68
2023/12/19 09:40:50;;;;;;;21.80;12.07;;;1.70;99.90;;;;;;5109621;28;21147;-66
2023/12/19 09:43:20;;;;;;;19.67;11.37;;;1.80;99.90;;;;;;5109103;28;20821;-68
2023/12/19 09:45:49;;;;;;;20.03;10.50;;;1.90;99.90;;;;;;5109082;28;20468;-67
2023/12/19 09:48:21;;;;;;;23.87;13.30;;;1.80;99.90;;;;;;5109630;28;20507;-65
2023/12/19 09:50:51;;;;;;;19.23;11.67;;;1.70;99.90;;;;;;5109278;28;20437;-66
2023/12/19 09:53:22;;;;;;;21.95;11.48;;;1.60;99.90;;;;;;5109526;28;20537;-66
2023/12/19 09:55:54;;;;;;;18.77;10.40;;;1.60;99.90;;;;;;5108836;28;20227;-67
2023/12/19 09:58:26;;;;;;;19.77;12.43;;;1.70;99.90;;;;;;5108841;28;20445;-66
2023/12/19 10:00:55;;;;;;;21.00;11.45;;;1.60;99.90;;;;;;5108925;28;20227;-67
2023/12/19 10:03:27;;;;;;;19.88;11.23;;;1.50;99.90;;;;;;5095975;28;20250;-67
2023/12/19 10:05:57;;;;;;;17.52;10.50;;;1.50;99.90;;;;;;5088447;28;20836;-66
2023/12/19 10:08:33;;;;;;;24.80;12.30;;;1.50;99.90;;;;;;5088854;28;20230;-67
2023/12/19 10:11:01;;;;;;;19.90;10.73;;;1.50;99.90;;;;;;5088495;28;20240;-66
2023/12/19 10:13:32;;;;;;;20.70;10.00;;;1.50;99.90;;;;;;5088592;28;20306;-67
2023/12/19 10:16:02;;;;;;;20.83;9.77;;;1.50;99.90;;;;;;5088772;28;20313;-68
2023/12/19 10:18:55;;;;;;;20.08;10.70;;;1.50;99.90;;;;;;5089887;28;20202;-66
2023/12/19 10:21:24;;;;;;;19.52;10.35;;;1.50;99.90;;;;;;5088943;28;20245;-67
2023/12/19 10:24:06;;;;;;;20.25;11.27;;;1.40;99.90;;;;;;5088263;28;20723;-67
2023/12/19 10:26:34;;;;;;;19.92;10.10;;;1.30;99.90;;;;;;5087998;28;20243;-68
2023/12/19 10:29:02;;;;;;;23.70;11.20;;;1.30;99.90;;;;;;5088233;28;20569;-66
2023/12/19 10:31:30;;;;;;;19.90;11.07;;;1.30;99.90;;;;;;5088926;28;20300;-68
2023/12/19 10:33:59;;;;;;;20.15;10.02;;;1.30;99.90;;;;;;5087716;28;20314;-68
2023/12/19 10:36:28;;;;;;;20.58;10.45;;;1.40;99.90;;;;;;5088339;28;20229;-67
2023/12/19 10:39:02;;;;;;;18.80;9.70;;;1.30;99.90;;;;;;5088378;28;20236;-68
2023/12/19 10:41:31;;;;;;;18.85;9.35;;;1.30;99.90;;;;;;5088166;28;20475;-67
2023/12/19 10:44:02;;;;;;;18.45;9.68;;;1.40;99.90;;;;;;5087657;28;20206;-65
2023/12/19 10:46:33;;;;;;;20.17;10.00;;;1.40;99.90;;;;;;5087715;28;20230;-68
2023/12/19 10:49:07;;;;;;;20.15;10.13;;;1.40;99.90;;;;;;5087935;28;20216;-69
2023/12/19 10:51:36;;;;;;;20.27;10.68;;;1.40;99.90;;;;;;5087668;28;20237;-68
2023/12/19 10:54:11;;;;;;;19.30;11.35;;;1.40;99.90;;;;;;5087478;28;20205;-68
2023/12/19 10:56:53;;;;;;;19.13;9.68;;;1.50;99.90;;;;;;5087131;28;20269;-67
2023/12/19 10:59:30;;;;;;;19.38;10.07;;;1.40;99.90;;;;;;5100025;28;20744;-68
2023/12/19 11:02:03;;;;;;;20.35;8.90;;;1.40;99.90;;;;;;5107885;28;20220;-67
2023/12/19 11:04:35;;;;;;;17.88;10.02;;;1.40;99.90;;;;;;5107324;28;20370;-67
2023/12/19 11:07:11;;;;;;;19.65;10.30;;;1.40;99.90;;;;;;5107921;28;20649;-67
2023/12/19 11:09:44;;;;;;;18.45;9.55;;;1.40;99.90;;;;;;5107656;28;20209;-67
2023/12/19 11:12:13;;;;;;;20.17;9.27;;;1.40;99.90;;;;;;5104966;28;20305;-67
2023/12/19 11:14:42;;;;;;;16.75;9.07;;;1.50;99.90;;;;;;5086816;28;20788;-68
2023/12/19 11:17:16;;;;;;;20.08;9.48;;;1.60;99.90;;;;;;5087076;28;20282;-69
2023/12/19 11:19:52;;;;;;;20.65;8.35;;;1.70;99.90;;;;;;5087365;28;20212;-67
2023/12/19 11:22:27;;;;;;;18.25;9.10;;;1.90;99.90;;;;;;5087200;28;20324;-69
2023/12/19 11:25:03;;;;;;;17.92;8.52;;;2.00;99.90;;;;;;5086677;28;20373;-68
2023/12/19 11:27:40;;;;;;;18.95;10.13;;;2.10;99.90;;;;;;5100273;28;20737;-70
2023/12/19 11:30:31;;;;;;;18.90;8.55;;;2.20;99.90;;;;;;5107005;28;20210;-68
2023/12/19 11:33:00;;;;;;;18.17;9.50;;;2.20;99.90;;;;;;5107145;28;20304;-67
2023/12/19 11:35:29;;;;;;;18.60;9.52;;;2.30;99.90;;;;;;5107220;28;20224;-68
2023/12/19 11:38:21;;;;;;;16.15;9.25;;;2.50;99.90;;;;;;5107398;27;20199;-66
2023/12/19 11:40:51;;;;;;;17.40;9.10;;;2.50;99.90;;;;;;5107344;28;20216;-68
2023/12/19 11:43:54;;;;;;;16.20;7.78;;;2.70;99.90;;;;;;5107177;28;20227;-67
2023/12/19 11:46:23;;;;;;;14.85;7.50;;;2.90;99.90;;;;;;5106045;28;20292;-69
2023/12/19 11:48:53;;;;;;;17.60;8.13;;;2.90;99.90;;;;;;5106841;28;20916;-67
2023/12/19 11:51:54;;;;;;;17.57;8.87;;;3.00;99.90;;;;;;5107025;28;20903;-67
2023/12/19 11:54:22;;;;;;;16.23;8.10;;;3.30;99.90;;;;;;5106804;28;20460;-67
2023/12/19 11:57:03;;;;;;;13.33;7.10;;;3.50;99.90;;;;;;5107204;28;20820;-67
2023/12/19 11:59:48;;;;;;;17.77;9.00;;;3.80;99.90;;;;;;5106979;28;20448;-67
2023/12/19 12:02:33;;;;;;;16.10;7.40;;;4.10;99.90;;;;;;5107113;28;20552;-68
2023/12/19 12:05:09;;;;;;;15.73;7.70;;;4.20;99.90;;;;;;5107001;28;20537;-67
2023/12/19 12:07:47;;;;;;;14.47;7.40;;;4.20;99.90;;;;;;5106448;28;20515;-67
2023/12/19 12:10:18;;;;;;;14.13;6.90;;;4.20;99.90;;;;;;5106457;28;20459;-67
2023/12/19 12:12:47;;;;;;;15.27;8.10;;;4.20;99.90;;;;;;5106736;28;21137;-67
2023/12/19 12:15:18;;;;;;;13.97;7.00;;;4.10;99.90;;;;;;5106247;28;20457;-67
2023/12/19 12:17:47;;;;;;;21.70;8.20;;;4.00;99.90;;;;;;5106579;28;20527;-67
2023/12/19 12:20:15;;;;;;;14.67;6.90;;;3.80;99.90;;;;;;5106441;28;20818;-67
2023/12/19 12:22:44;;;;;;;16.07;8.37;;;3.70;99.90;;;;;;5101855;28;21256;-66
2023/12/19 12:25:12;;;;;;;13.53;7.00;;;3.50;99.90;;;;;;5096206;28;20442;-67
2023/12/19 12:27:40;;;;;;;14.17;6.93;;;3.50;99.90;;;;;;5107682;28;20571;-66
2023/12/19 12:30:12;;;;;;;15.70;7.80;;;3.50;99.90;;;;;;5101047;28;20445;-66
2023/12/19 12:32:41;;;;;;;15.00;7.60;;;3.40;99.90;;;;;;5101593;28;20433;-65
2023/12/19 12:35:28;;;;;;;16.60;9.20;;;3.40;99.90;;;;;;5104470;28;20437;-65
2023/12/19 12:38:00;;;;;;;17.40;7.90;;;3.50;99.90;;;;;;5095970;28;20458;-68
2023/12/19 12:40:29;;;;;;;13.33;6.77;;;3.60;99.90;;;;;;5103546;28;20944;-67
2023/12/19 12:43:33;;;;;;;14.37;6.90;;;3.80;99.90;;;;;;5099947;28;20555;-67
2023/12/19 12:46:13;;;;;;;13.30;6.87;;;3.80;99.90;;;;;;5104225;28;20564;-67